Time;durP1;ratioP1;P1;durP2;ratioP2;P2;SDS_P1;SDS_P2;PMS_P1;PMS_P2;Temp;Humidity;BMP_temperature;BMP_pressure;BME280_temperature;BME280_humidity;BME280_pressure;Samples;Min_cycle;Max_cycle;Signal;HPM_P1;HPM_P2
2022/09/06 00:01:45;;;;;;;;;;;;;;;;;;5107146;27;20044;-71
2022/09/06 00:04:11;;;;;;;15.40;6.10;;;;;;;;;;5108721;27;19981;-72
2022/09/06 00:06:37;;;;;;;;;;;;;;;;;;5116433;27;20050;-71
2022/09/06 00:09:03;;;;;;;15.23;6.43;;;;;;;;;;5119925;27;20311;-71
2022/09/06 00:11:29;;;;;;;12.95;6.57;;;;;;;;;;5109239;27;20415;-71
2022/09/06 00:13:55;;;;;;;;;;;;;;;;;;5117618;27;20463;-72
2022/09/06 00:16:23;;;;;;;16.20;6.65;;;;;;;;;;5111390;27;19927;-72
2022/09/06 00:18:49;;;;;;;12.40;6.07;;;;;;;;;;5127687;27;20089;-70
2022/09/06 00:21:19;;;;;;;12.57;6.93;;;;;;;;;;5115538;27;20039;-71
2022/09/06 00:23:46;;;;;;;16.90;6.38;;;;;;;;;;5124370;27;20197;-75
2022/09/06 00:26:12;;;;;;;13.50;6.28;;;;;;;;;;5126193;27;20043;-69
2022/09/06 00:28:38;;;;;;;14.55;6.60;;;;;;;;;;5141592;27;20099;-70
2022/09/06 00:31:09;;;;;;;16.30;6.55;;;;;;;;;;5137577;27;20038;-70
2022/09/06 00:33:35;;;;;;;14.52;6.40;;;;;;;;;;5148230;27;20404;-70
2022/09/06 00:36:01;;;;;;;;;;;;;;;;;;5148575;27;20465;-69
2022/09/06 00:38:27;;;;;;;12.25;6.18;;;;;;;;;;5142191;27;19919;-70
2022/09/06 00:40:53;;;;;;;14.75;6.13;;;;;;;;;;5143745;27;20050;-71
2022/09/06 00:43:19;;;;;;;;;;;;;;;;;;5149439;27;20202;-71
2022/09/06 00:45:45;;;;;;;15.73;6.40;;;;;;;;;;5144671;27;20009;-71
2022/09/06 00:48:11;;;;;;;;;;;;;;;;;;5151047;27;20439;-72
2022/09/06 00:50:37;;;;;;;14.00;6.47;;;;;;;;;;5149167;27;20026;-72
2022/09/06 00:53:03;;;;;;;;;;;;;;;;;;5147542;27;20054;-71
2022/09/06 00:55:29;;;;;;;15.55;6.70;;;;;;;;;;5145372;27;20238;-70
2022/09/06 00:57:55;;;;;;;12.38;6.78;;;;;;;;;;5097267;27;20074;-71
2022/09/06 01:00:21;;;;;;;13.45;5.97;;;;;;;;;;5149509;27;20073;-70
2022/09/06 01:02:48;;;;;;;13.20;6.47;;;;;;;;;;5148922;27;20095;-71
2022/09/06 01:05:14;;;;;;;14.75;6.13;;;;;;;;;;5149550;27;20065;-71
2022/09/06 01:08:04;;;;;;;13.23;6.40;;;;;;;;;;5144763;27;20054;-72
2022/09/06 01:10:49;;;;;;;13.90;6.35;;;;;;;;;;5113560;27;20072;-69
2022/09/06 01:13:33;;;;;;;13.30;5.95;;;;;;;;;;5125531;27;20057;-69
2022/09/06 01:15:59;;;;;;;13.25;6.30;;;;;;;;;;5143272;27;20047;-71
2022/09/06 01:18:25;;;;;;;;;;;;;;;;;;5143584;27;20035;-71
2022/09/06 01:21:02;;;;;;;12.65;6.30;;;;;;;;;;5146203;27;20029;-79
2022/09/06 01:23:28;;;;;;;16.45;6.15;;;;;;;;;;5130806;27;20078;-71
2022/09/06 01:25:54;;;;;;;;;;;;;;;;;;5149395;27;20097;-76
2022/09/06 01:28:24;;;;;;;11.85;6.25;;;;;;;;;;5146388;27;19919;-71
2022/09/06 01:30:58;;;;;;;11.43;6.55;;;;;;;;;;5117863;27;20047;-69
2022/09/06 01:33:32;;;;;;;13.25;6.20;;;;;;;;;;5147407;27;20503;-70
2022/09/06 01:36:04;;;;;;;15.27;6.72;;;;;;;;;;5143668;27;20071;-71
2022/09/06 01:38:30;;;;;;;12.18;5.90;;;;;;;;;;5120305;28;20452;-70
2022/09/06 01:40:56;;;;;;;13.65;6.65;;;;;;;;;;5137674;27;20139;-75
2022/09/06 01:43:22;;;;;;;;;;;;;;;;;;5142076;27;20383;-71
2022/09/06 01:45:48;;;;;;;12.40;6.78;;;;;;;;;;5141251;27;19938;-71
2022/09/06 01:48:14;;;;;;;;;;;;;;;;;;5145997;27;20914;-70
2022/09/06 01:50:50;;;;;;;13.50;6.00;;;;;;;;;;5146176;27;19976;-70
2022/09/06 01:53:25;;;;;;;16.33;6.57;;;;;;;;;;5140934;27;20102;-71
2022/09/06 01:55:57;;;;;;;14.25;6.60;;;;;;;;;;5137558;27;20047;-71
2022/09/06 01:58:23;;;;;;;12.43;6.90;;;;;;;;;;5145667;27;20058;-71
2022/09/06 02:00:49;;;;;;;;;;;;;;;;;;5143305;27;20308;-71
2022/09/06 02:03:25;;;;;;;18.17;6.57;;;;;;;;;;5138161;27;19919;-71
2022/09/06 02:05:53;;;;;;;13.18;6.32;;;;;;;;;;5146388;27;20054;-71
2022/09/06 02:08:26;;;;;;;11.52;6.43;;;;;;;;;;5146728;27;20709;-74
2022/09/06 02:11:00;;;;;;;12.27;6.30;;;;;;;;;;5123192;27;20075;-72
2022/09/06 02:13:30;;;;;;;15.75;6.55;;;;;;;;;;5147823;27;20442;-72
2022/09/06 02:15:59;;;;;;;15.30;7.00;;;;;;;;;;5125601;27;20050;-80
2022/09/06 02:18:29;;;;;;;14.43;6.90;;;;;;;;;;5147732;27;20457;-71
2022/09/06 02:20:57;;;;;;;10.82;6.70;;;;;;;;;;5143564;27;20074;-71
2022/09/06 02:23:25;;;;;;;17.95;7.32;;;;;;;;;;5128563;27;20046;-71
2022/09/06 02:25:57;;;;;;;14.25;6.85;;;;;;;;;;5130679;27;20062;-71
2022/09/06 02:28:23;;;;;;;14.55;7.53;;;;;;;;;;5120083;27;20522;-70
2022/09/06 02:30:52;;;;;;;13.60;6.90;;;;;;;;;;5143953;27;20577;-70
2022/09/06 02:33:25;;;;;;;11.73;6.78;;;;;;;;;;5151550;27;20042;-70
2022/09/06 02:35:52;;;;;;;15.60;6.55;;;;;;;;;;5134962;27;20094;-69
2022/09/06 02:38:21;;;;;;;14.70;7.20;;;;;;;;;;5121019;27;20050;-72
2022/09/06 02:40:48;;;;;;;14.45;6.43;;;;;;;;;;5126739;27;20122;-71
2022/09/06 02:43:14;;;;;;;11.38;6.93;;;;;;;;;;5147877;27;20611;-69
2022/09/06 02:45:40;;;;;;;;;;;;;;;;;;5129687;27;20692;-70
2022/09/06 02:48:06;;;;;;;12.27;7.05;;;;;;;;;;5151429;27;20334;-72
2022/09/06 02:50:32;;;;;;;;;;;;;;;;;;5131415;27;20047;-70
2022/09/06 02:53:05;;;;;;;13.32;7.28;;;;;;;;;;5144081;27;20414;-72
2022/09/06 02:55:31;;;;;;;12.57;7.07;;;;;;;;;;5142930;27;20062;-71
2022/09/06 02:57:57;;;;;;;13.82;7.03;;;;;;;;;;5130763;27;20213;-72
2022/09/06 03:00:24;;;;;;;;;;;;;;;;;;5148421;27;20062;-70
2022/09/06 03:02:50;;;;;;;13.80;6.97;;;;;;;;;;5145772;27;19923;-72
2022/09/06 03:05:16;;;;;;;;;;;;;;;;;;5152799;27;20039;-71
2022/09/06 03:07:42;;;;;;;13.40;7.50;;;;;;;;;;5126085;27;19923;-72
2022/09/06 03:10:08;;;;;;;12.40;7.05;;;;;;;;;;5132984;27;20047;-76
2022/09/06 03:12:34;;;;;;;15.10;7.13;;;;;;;;;;5143047;27;20410;-72
2022/09/06 03:15:00;;;;;;;;;;;;;;;;;;5150260;27;20457;-72
2022/09/06 03:17:26;;;;;;;13.85;7.40;;;;;;;;;;5147624;27;19930;-71
2022/09/06 03:19:52;;;;;;;;;;;;;;;;;;5144846;27;20429;-72
2022/09/06 03:22:18;;;;;;;11.32;6.88;;;;;;;;;;5141542;27;19994;-75
2022/09/06 03:24:44;;;;;;;12.90;6.65;;;;;;;;;;5147592;27;20152;-74
2022/09/06 03:27:10;;;;;;;;;;;;;;;;;;5147661;27;20054;-79
2022/09/06 03:29:36;;;;;;;13.32;7.43;;;;;;;;;;5144251;27;19919;-71
2022/09/06 03:32:03;;;;;;;12.93;7.32;;;;;;;;;;5141485;27;20039;-72
2022/09/06 03:34:28;;;;;;;;;;;;;;;;;;5145949;27;20918;-71
2022/09/06 03:36:54;;;;;;;13.98;7.20;;;;;;;;;;5149800;27;19918;-70
2022/09/06 03:39:20;;;;;;;;;;;;;;;;;;5149851;27;20042;-71
2022/09/06 03:41:46;;;;;;;16.13;7.63;;;;;;;;;;5150564;27;20002;-71
2022/09/06 03:44:12;;;;;;;;;;;;;;;;;;5112245;27;20047;-78
2022/09/06 03:46:38;;;;;;;12.75;7.38;;;;;;;;;;5149298;27;19930;-72
2022/09/06 03:49:05;;;;;;;15.63;8.27;;;;;;;;;;5146749;27;20042;-69
2022/09/06 03:51:31;;;;;;;12.60;8.30;;;;;;;;;;5149150;27;20065;-70
2022/09/06 03:53:57;;;;;;;;;;;;;;;;;;5147859;27;20094;-72
2022/09/06 03:56:23;;;;;;;13.05;8.00;;;;;;;;;;5149872;27;19937;-72
2022/09/06 03:58:49;;;;;;;12.35;7.32;;;;;;;;;;5129884;27;20050;-76
2022/09/06 04:01:15;;;;;;;14.73;8.00;;;;;;;;;;5128888;27;20035;-78
2022/09/06 04:03:41;;;;;;;;;;;;;;;;;;5127904;27;20099;-72
2022/09/06 04:06:07;;;;;;;12.05;7.93;;;;;;;;;;5148327;27;19927;-70
2022/09/06 04:08:33;;;;;;;14.32;8.02;;;;;;;;;;5149388;27;20406;-71
2022/09/06 04:11:00;;;;;;;14.40;8.10;;;;;;;;;;5130833;27;20350;-71
2022/09/06 04:13:25;;;;;;;;;;;;;;;;;;5149638;27;20043;-72
2022/09/06 04:15:52;;;;;;;11.55;7.47;;;;;;;;;;5139354;27;20006;-70
2022/09/06 04:18:18;;;;;;;;;;;;;;;;;;5115759;27;20445;-75
2022/09/06 04:20:45;;;;;;;12.93;8.73;;;;;;;;;;5142896;27;19919;-71
2022/09/06 04:23:11;;;;;;;16.50;8.32;;;;;;;;;;5145381;27;20049;-71
2022/09/06 04:25:38;;;;;;;;;;;;;;;;;;5147135;27;20102;-71
2022/09/06 04:28:04;;;;;;;17.05;8.35;;;;;;;;;;5142362;27;20010;-71
2022/09/06 04:30:30;;;;;;;;;;;;;;;;;;5131267;27;20057;-70
2022/09/06 04:32:56;;;;;;;14.23;8.95;;;;;;;;;;5135508;27;20003;-70
2022/09/06 04:35:22;;;;;;;;;;;;;;;;;;5149073;27;20498;-70
2022/09/06 04:37:48;;;;;;;12.82;8.63;;;;;;;;;;5146149;27;19986;-71
2022/09/06 04:40:14;;;;;;;16.42;9.18;;;;;;;;;;5147106;27;20125;-70
2022/09/06 04:42:40;;;;;;;;;;;;;;;;;;5126143;27;20050;-72
2022/09/06 04:45:07;;;;;;;15.85;8.50;;;;;;;;;;5145826;27;20273;-71
2022/09/06 04:47:33;;;;;;;;;;;;;;;;;;5147042;27;20139;-70
2022/09/06 04:49:59;;;;;;;12.98;8.32;;;;;;;;;;5137145;27;20408;-72
2022/09/06 04:52:25;;;;;;;13.70;8.75;;;;;;;;;;5148820;27;20141;-75
2022/09/06 04:54:51;;;;;;;15.10;8.80;;;;;;;;;;5146192;27;20126;-72
2022/09/06 04:57:17;;;;;;;19.45;9.98;;;;;;;;;;5148452;27;20505;-71
2022/09/06 04:59:43;;;;;;;;;;;;;;;;;;5146010;27;20114;-73
2022/09/06 05:02:09;;;;;;;15.93;10.18;;;;;;;;;;5142215;27;20021;-70
2022/09/06 05:04:35;;;;;;;16.55;9.73;;;;;;;;;;5147512;27;20164;-72
2022/09/06 05:07:05;;;;;;;16.80;9.65;;;;;;;;;;5144522;27;20123;-70
2022/09/06 05:09:32;;;;;;;16.50;10.77;;;;;;;;;;5128630;27;20226;-73
2022/09/06 05:11:58;;;;;;;16.05;10.73;;;;;;;;;;5142889;27;20045;-72
2022/09/06 05:14:25;;;;;;;20.80;11.05;;;;;;;;;;5139162;27;20106;-79
2022/09/06 05:16:53;;;;;;;16.27;10.90;;;;;;;;;;5121577;27;20126;-73
2022/09/06 05:19:19;;;;;;;17.23;10.27;;;;;;;;;;5139444;27;20142;-73
2022/09/06 05:21:45;;;;;;;;;;;;;;;;;;5149031;27;20038;-73
2022/09/06 05:24:14;;;;;;;20.13;11.35;;;;;;;;;;5144145;27;19919;-72
2022/09/06 05:26:40;;;;;;;;;;;;;;;;;;5131954;27;20073;-76
2022/09/06 05:29:06;;;;;;;18.00;10.82;;;;;;;;;;5146176;27;19919;-71
2022/09/06 05:31:34;;;;;;;17.42;10.98;;;;;;;;;;5122377;27;20485;-73
2022/09/06 05:34:00;;;;;;;15.30;10.32;;;;;;;;;;5128156;28;20063;-72
2022/09/06 05:36:27;;;;;;;19.45;10.38;;;;;;;;;;5127586;28;20039;-78
2022/09/06 05:38:54;;;;;;;19.00;11.00;;;;;;;;;;5127457;28;20471;-72
2022/09/06 05:41:21;;;;;;;16.27;10.75;;;;;;;;;;5137542;27;20096;-74
2022/09/06 05:43:47;;;;;;;18.05;10.93;;;;;;;;;;5128599;27;20345;-73
2022/09/06 05:46:13;;;;;;;18.15;10.25;;;;;;;;;;5147704;27;20046;-76
2022/09/06 05:48:39;;;;;;;;;;;;;;;;;;5129495;27;20039;-73
2022/09/06 05:51:06;;;;;;;17.95;11.70;;;;;;;;;;5130813;27;19925;-73
2022/09/06 05:53:33;;;;;;;17.63;11.95;;;;;;;;;;5129200;27;20069;-72
2022/09/06 05:55:59;;;;;;;20.42;12.30;;;;;;;;;;5147343;27;20070;-72
2022/09/06 05:58:25;;;;;;;;;;;;;;;;;;5146416;27;20045;-76
2022/09/06 06:00:52;;;;;;;16.35;11.50;;;;;;;;;;5126023;27;19927;-73
2022/09/06 06:03:18;;;;;;;19.83;11.82;;;;;;;;;;5146485;27;20117;-71
2022/09/06 06:05:47;;;;;;;19.98;11.93;;;;;;;;;;5145556;27;20039;-75
2022/09/06 06:08:13;;;;;;;17.02;11.52;;;;;;;;;;5150598;27;20470;-72
2022/09/06 06:10:40;;;;;;;;;;;;;;;;;;5146221;27;21769;-79
2022/09/06 06:13:06;;;;;;;16.85;12.07;;;;;;;;;;5144753;27;19919;-73
2022/09/06 06:15:32;;;;;;;20.38;11.90;;;;;;;;;;5130112;27;20098;-79
2022/09/06 06:17:58;;;;;;;;;;;;;;;;;;5133674;27;20095;-72
2022/09/06 06:20:24;;;;;;;20.02;12.57;;;;;;;;;;5144422;27;20018;-74
2022/09/06 06:22:50;;;;;;;21.92;12.95;;;;;;;;;;5151190;27;20138;-71
2022/09/06 06:25:21;;;;;;;17.33;12.95;;;;;;;;;;5151934;27;20069;-71
2022/09/06 06:27:47;;;;;;;19.35;12.52;;;;;;;;;;5146127;27;20430;-76
2022/09/06 06:30:14;;;;;;;20.85;13.38;;;;;;;;;;5142029;27;20501;-73
2022/09/06 06:32:40;;;;;;;20.13;13.02;;;;;;;;;;5147762;27;20058;-71
2022/09/06 06:35:07;;;;;;;;;;;;;;;;;;5142710;27;20055;-73
2022/09/06 06:37:33;;;;;;;21.75;12.50;;;;;;;;;;5119601;27;20247;-78
2022/09/06 06:39:59;;;;;;;;;;;;;;;;;;5125062;27;20137;-72
2022/09/06 06:42:25;;;;;;;20.52;12.77;;;;;;;;;;5143547;27;20758;-76
2022/09/06 06:44:53;;;;;;;20.73;13.52;;;;;;;;;;5146778;27;20069;-74
2022/09/06 06:47:19;;;;;;;19.15;12.93;;;;;;;;;;5147661;27;20397;-72
2022/09/06 06:49:47;;;;;;;20.20;13.90;;;;;;;;;;5148542;27;20193;-74
2022/09/06 06:52:13;;;;;;;18.38;13.18;;;;;;;;;;5149037;27;20062;-73
2022/09/06 06:54:40;;;;;;;;;;;;;;;;;;5152214;27;20140;-72
2022/09/06 06:57:08;;;;;;;21.08;14.40;;;;;;;;;;5145752;27;19943;-73
2022/09/06 06:59:34;;;;;;;25.05;15.00;;;;;;;;;;5131556;27;20047;-72
2022/09/06 07:02:00;;;;;;;22.02;15.40;;;;;;;;;;5144278;27;20120;-73
2022/09/06 07:04:26;;;;;;;;;;;;;;;;;;5133483;27;20049;-71
2022/09/06 07:06:54;;;;;;;22.73;16.42;;;;;;;;;;5121250;27;19919;-72
2022/09/06 07:09:20;;;;;;;23.98;16.17;;;;;;;;;;5151346;27;20118;-70
2022/09/06 07:11:47;;;;;;;25.73;16.48;;;;;;;;;;5148860;27;20182;-73
2022/09/06 07:14:14;;;;;;;23.35;15.57;;;;;;;;;;5151546;27;20484;-74
2022/09/06 07:16:40;;;;;;;23.20;16.63;;;;;;;;;;5148697;27;20324;-73
2022/09/06 07:19:06;;;;;;;;;;;;;;;;;;5152346;27;20133;-77
2022/09/06 07:21:32;;;;;;;24.05;16.85;;;;;;;;;;5149836;27;20063;-72
2022/09/06 07:23:58;;;;;;;;;;;;;;;;;;5151842;27;20046;-73
2022/09/06 07:26:25;;;;;;;23.00;17.20;;;;;;;;;;5143895;27;19923;-80
2022/09/06 07:28:55;;;;;;;27.63;17.20;;;;;;;;;;5126681;27;20047;-73
2022/09/06 07:31:21;;;;;;;27.88;18.17;;;;;;;;;;5149530;27;20135;-74
2022/09/06 07:33:49;;;;;;;24.33;17.42;;;;;;;;;;5129260;27;20443;-75
2022/09/06 07:36:15;;;;;;;23.42;18.50;;;;;;;;;;5131500;27;20038;-74
2022/09/06 07:38:41;;;;;;;26.65;18.15;;;;;;;;;;5147139;27;20119;-77
2022/09/06 07:41:10;;;;;;;26.23;18.25;;;;;;;;;;5135915;27;20043;-77
2022/09/06 07:43:36;;;;;;;24.92;18.00;;;;;;;;;;5111484;27;20062;-78
2022/09/06 07:46:02;;;;;;;28.63;18.13;;;;;;;;;;5144111;27;20273;-71
2022/09/06 07:48:30;;;;;;;26.15;17.45;;;;;;;;;;5144268;27;20075;-70
2022/09/06 07:51:01;;;;;;;25.20;17.63;;;;;;;;;;5136900;27;20039;-72
2022/09/06 07:53:29;;;;;;;28.38;18.55;;;;;;;;;;5144674;27;20351;-73
2022/09/06 07:55:55;;;;;;;29.05;17.85;;;;;;;;;;5148398;27;20451;-70
2022/09/06 07:58:21;;;;;;;23.88;18.08;;;;;;;;;;5122487;27;20137;-72
2022/09/06 08:00:47;;;;;;;;;;;;;;;;;;5119194;27;20050;-73
2022/09/06 08:03:13;;;;;;;21.20;16.17;;;;;;;;;;5129184;27;19919;-69
2022/09/06 08:05:39;;;;;;;;;;;;;;;;;;5110142;27;20073;-73
2022/09/06 08:08:06;;;;;;;25.33;16.30;;;;;;;;;;5121249;27;19933;-72
2022/09/06 08:10:32;;;;;;;23.95;17.25;;;;;;;;;;5138303;27;20042;-73
2022/09/06 08:12:58;;;;;;;26.02;16.50;;;;;;;;;;5136940;27;20076;-77
2022/09/06 08:15:24;;;;;;;23.98;17.50;;;;;;;;;;5136080;27;20089;-73
2022/09/06 08:17:50;;;;;;;;;;;;;;;;;;5137620;27;20097;-74
2022/09/06 08:20:16;;;;;;;21.67;16.13;;;;;;;;;;5137542;27;19958;-74
2022/09/06 08:22:43;;;;;;;24.67;16.95;;;;;;;;;;5138068;27;20148;-76
2022/09/06 08:25:09;;;;;;;24.15;18.73;;;;;;;;;;5137079;27;20768;-72
2022/09/06 08:27:36;;;;;;;19.70;15.60;;;;;;;;;;5136615;27;20427;-72
2022/09/06 08:30:02;;;;;;;23.17;15.82;;;;;;;;;;5133394;27;20047;-75
2022/09/06 08:32:35;;;;;;;23.25;16.88;;;;;;;;;;5136724;27;20202;-72
2022/09/06 08:35:01;;;;;;;23.85;17.02;;;;;;;;;;5135708;27;20042;-74
2022/09/06 08:37:27;;;;;;;;;;;;;;;;;;5140657;27;20459;-71
2022/09/06 08:39:53;;;;;;;23.00;17.38;;;;;;;;;;5139053;27;19939;-73
2022/09/06 08:42:19;;;;;;;;;;;;;;;;;;5117860;27;20047;-74
2022/09/06 08:44:48;;;;;;;21.30;16.55;;;;;;;;;;5138559;27;19988;-74
2022/09/06 08:47:15;;;;;;;24.08;16.50;;;;;;;;;;5134385;27;20047;-78
2022/09/06 08:50:10;;;;;;;25.13;17.17;;;;;;;;;;5133317;27;20042;-71
2022/09/06 08:52:52;;;;;;;25.65;16.48;;;;;;;;;;5133589;27;20154;-75
2022/09/06 08:55:27;;;;;;;19.80;15.70;;;;;;;;;;5138444;27;20035;-71
2022/09/06 08:58:00;;;;;;;36.60;15.95;;;;;;;;;;5118891;27;20137;-73
2022/09/06 09:00:26;;;;;;;30.30;16.85;;;;;;;;;;5137113;27;20164;-77
2022/09/06 09:02:59;;;;;;;25.17;16.90;;;;;;;;;;5142014;27;20039;-81
2022/09/06 09:05:29;;;;;;;24.88;16.20;;;;;;;;;;5125200;27;20347;-84
2022/09/06 09:08:14;;;;;;;24.25;16.40;;;;;;;;;;5136197;27;20043;-74
2022/09/06 09:10:48;;;;;;;22.50;15.00;;;;;;;;;;5134975;27;20126;-74
2022/09/06 09:13:25;;;;;;;26.63;15.02;;;;;;;;;;5147211;27;20565;-77
2022/09/06 09:15:51;;;;;;;23.27;15.40;;;;;;;;;;5145650;27;20053;-79
2022/09/06 09:18:21;;;;;;;23.88;15.85;;;;;;;;;;5123982;27;20038;-79
2022/09/06 09:20:47;;;;;;;20.80;15.07;;;;;;;;;;5137705;27;20484;-79
2022/09/06 09:23:13;;;;;;;25.05;15.82;;;;;;;;;;5146936;27;20130;-76
2022/09/06 09:25:39;;;;;;;;;;;;;;;;;;5124513;27;20055;-74
2022/09/06 09:28:12;;;;;;;21.15;16.30;;;;;;;;;;5128155;27;19926;-76
2022/09/06 09:30:46;;;;;;;21.77;14.75;;;;;;;;;;5148890;27;20043;-76
2022/09/06 09:33:27;;;;;;;23.90;14.38;;;;;;;;;;5146654;27;20047;-72
2022/09/06 09:35:58;;;;;;;21.10;13.32;;;;;;;;;;5140836;27;20042;-79
2022/09/06 09:38:26;;;;;;;18.73;13.23;;;;;;;;;;5138947;27;20134;-75
2022/09/06 09:41:00;;;;;;;19.60;14.43;;;;;;;;;;5142325;27;20070;-75
2022/09/06 09:43:37;;;;;;;20.55;14.85;;;;;;;;;;5149238;27;20054;-78
2022/09/06 09:46:22;;;;;;;22.05;14.60;;;;;;;;;;5135423;27;20054;-75
2022/09/06 09:49:06;;;;;;;19.35;13.73;;;;;;;;;;5150537;27;20069;-75
2022/09/06 09:51:34;;;;;;;19.40;14.25;;;;;;;;;;5142064;27;20382;-75
2022/09/06 09:54:02;;;;;;;23.30;14.30;;;;;;;;;;5141734;27;20082;-75
2022/09/06 09:56:32;;;;;;;25.20;15.13;;;;;;;;;;5124404;27;20355;-71
2022/09/06 09:58:58;;;;;;;19.23;13.80;;;;;;;;;;5139276;27;20398;-81
2022/09/06 10:01:27;;;;;;;20.17;14.52;;;;;;;;;;5113536;27;20042;-75
2022/09/06 10:03:59;;;;;;;18.77;13.60;;;;;;;;;;5144543;27;20091;-80
2022/09/06 10:06:26;;;;;;;20.40;14.98;;;;;;;;;;5146033;27;20039;-75
2022/09/06 10:08:53;;;;;;;21.23;14.70;;;;;;;;;;5119949;27;20051;-74
2022/09/06 10:11:37;;;;;;;24.17;15.63;;;;;;;;;;5151313;27;20186;-72
2022/09/06 10:14:10;;;;;;;23.73;15.45;;;;;;;;;;5150162;27;20073;-73
2022/09/06 10:16:44;;;;;;;21.55;13.82;;;;;;;;;;5149987;27;20110;-74
2022/09/06 10:19:23;;;;;;;22.15;15.50;;;;;;;;;;5150206;27;20046;-77
2022/09/06 10:21:52;;;;;;;26.67;14.98;;;;;;;;;;5137697;27;20137;-74
2022/09/06 10:24:41;;;;;;;21.40;14.18;;;;;;;;;;5151219;27;20091;-74
2022/09/06 10:27:08;;;;;;;22.25;13.00;;;;;;;;;;5149534;27;20049;-74
2022/09/06 10:29:43;;;;;;;21.42;13.80;;;;;;;;;;5151513;27;20134;-75
2022/09/06 10:32:21;;;;;;;26.25;14.07;;;;;;;;;;5148812;27;20428;-75
2022/09/06 10:34:59;;;;;;;19.38;14.02;;;;;;;;;;5124558;27;20439;-76
2022/09/06 10:37:28;;;;;;;20.85;15.07;;;;;;;;;;5145826;27;20381;-72
2022/09/06 10:39:55;;;;;;;20.33;14.57;;;;;;;;;;5144454;27;20126;-72
2022/09/06 10:42:21;;;;;;;21.33;14.52;;;;;;;;;;5144896;27;20130;-82
2022/09/06 10:44:47;;;;;;;;;;;;;;;;;;5150696;27;20129;-74
2022/09/06 10:47:14;;;;;;;19.65;14.43;;;;;;;;;;5139855;27;19919;-71
2022/09/06 10:49:44;;;;;;;23.25;14.10;;;;;;;;;;5152318;27;20146;-75
2022/09/06 10:52:13;;;;;;;22.13;15.30;;;;;;;;;;5151619;27;20058;-73
2022/09/06 10:54:40;;;;;;;24.52;15.85;;;;;;;;;;5151746;27;20042;-73
2022/09/06 10:57:10;;;;;;;18.35;14.63;;;;;;;;;;5150145;27;20043;-74
2022/09/06 10:59:45;;;;;;;19.38;14.93;;;;;;;;;;5151534;27;20473;-74
2022/09/06 11:02:35;;;;;;;20.67;14.60;;;;;;;;;;5151006;27;20058;-75
2022/09/06 11:05:10;;;;;;;23.75;15.40;;;;;;;;;;5140590;27;20054;-73
2022/09/06 11:07:49;;;;;;;20.70;16.10;;;;;;;;;;5147743;27;20171;-76
2022/09/06 11:10:27;;;;;;;20.70;14.63;;;;;;;;;;5151228;27;20133;-71
2022/09/06 11:12:59;;;;;;;20.05;14.90;;;;;;;;;;5151912;27;20046;-71
2022/09/06 11:15:27;;;;;;;21.38;15.18;;;;;;;;;;5151278;27;20054;-68
2022/09/06 11:18:09;;;;;;;18.48;15.15;;;;;;;;;;5150306;27;20050;-87
2022/09/06 11:20:39;;;;;;;20.65;13.70;;;;;;;;;;5150793;27;20061;-79
2022/09/06 11:23:13;;;;;;;19.33;13.50;;;;;;;;;;5150071;27;20074;-74
2022/09/06 11:25:49;;;;;;;23.75;14.23;;;;;;;;;;5150526;27;20051;-71
2022/09/06 11:28:19;;;;;;;18.83;13.57;;;;;;;;;;5147291;27;20074;-84
2022/09/06 11:30:46;;;;;;;19.33;13.50;;;;;;;;;;5150325;27;20365;-75
2022/09/06 11:33:21;;;;;;;17.80;13.25;;;;;;;;;;5149392;27;20051;-76
2022/09/06 11:35:48;;;;;;;26.40;12.98;;;;;;;;;;5150554;27;20347;-79
2022/09/06 11:38:14;;;;;;;25.15;12.70;;;;;;;;;;5129100;27;20046;-74
2022/09/06 11:40:42;;;;;;;18.52;11.02;;;;;;;;;;5150690;27;20470;-73
2022/09/06 11:43:14;;;;;;;20.20;12.13;;;;;;;;;;5150553;27;20054;-71
2022/09/06 11:45:44;;;;;;;16.48;10.10;;;;;;;;;;5150768;27;20125;-73
2022/09/06 11:48:25;;;;;;;18.92;10.45;;;;;;;;;;5149708;27;20121;-73
2022/09/06 11:51:05;;;;;;;19.77;11.52;;;;;;;;;;5130136;27;20058;-81
2022/09/06 11:53:34;;;;;;;19.20;9.95;;;;;;;;;;5129012;27;20047;-74
2022/09/06 11:56:00;;;;;;;18.55;10.55;;;;;;;;;;5129246;27;20078;-76
2022/09/06 11:58:29;;;;;;;16.17;10.43;;;;;;;;;;5111764;27;20069;-75
2022/09/06 12:01:15;;;;;;;19.23;9.95;;;;;;;;;;5147147;27;20439;-74
2022/09/06 12:03:41;;;;;;;16.98;10.13;;;;;;;;;;5149422;27;20093;-80
2022/09/06 12:06:16;;;;;;;18.23;10.23;;;;;;;;;;5131512;27;20035;-74
2022/09/06 12:08:42;;;;;;;17.98;10.30;;;;;;;;;;5131631;27;20190;-77
2022/09/06 12:11:27;;;;;;;19.77;9.57;;;;;;;;;;5149282;27;20046;-75
2022/09/06 12:13:56;;;;;;;17.48;9.65;;;;;;;;;;5150217;27;20042;-73
2022/09/06 12:16:23;;;;;;;18.52;10.32;;;;;;;;;;5131102;27;20042;-74
2022/09/06 12:18:49;;;;;;;17.00;10.77;;;;;;;;;;5150117;27;20046;-75
2022/09/06 12:21:51;;;;;;;16.08;10.05;;;;;;;;;;5147737;27;20535;-75
2022/09/06 12:24:37;;;;;;;20.00;10.02;;;;;;;;;;5089951;27;20059;-79
2022/09/06 12:27:17;;;;;;;16.50;9.75;;;;;;;;;;5105861;28;20047;-77
2022/09/06 12:29:50;;;;;;;16.63;9.05;;;;;;;;;;5107470;28;20043;-81
2022/09/06 12:32:19;;;;;;;18.13;9.68;;;;;;;;;;5108189;28;20051;-75
2022/09/06 12:34:46;;;;;;;17.67;10.20;;;;;;;;;;5103579;28;20398;-75
2022/09/06 12:37:12;;;;;;;16.23;9.35;;;;;;;;;;5097826;28;20143;-71
2022/09/06 12:39:38;;;;;;;19.60;9.20;;;;;;;;;;5100345;28;20139;-78
2022/09/06 12:42:10;;;;;;;14.57;9.50;;;;;;;;;;5095882;28;20138;-72
2022/09/06 12:44:41;;;;;;;19.45;8.90;;;;;;;;;;5102769;27;20044;-79
2022/09/06 12:47:12;;;;;;;15.52;8.68;;;;;;;;;;5103799;28;20051;-78
2022/09/06 12:49:38;;;;;;;16.13;9.20;;;;;;;;;;5095242;28;20056;-73
2022/09/06 12:52:09;;;;;;;14.77;8.27;;;;;;;;;;5093498;28;20178;-76
2022/09/06 12:54:41;;;;;;;14.45;8.75;;;;;;;;;;5104567;28;20043;-74
2022/09/06 12:57:11;;;;;;;15.65;8.43;;;;;;;;;;5107435;28;20074;-77
2022/09/06 12:59:37;;;;;;;15.30;9.82;;;;;;;;;;5100578;28;20035;-76
2022/09/06 13:02:11;;;;;;;12.75;8.63;;;;;;;;;;5106425;28;20062;-75
2022/09/06 13:04:40;;;;;;;16.08;9.23;;;;;;;;;;5095547;28;20143;-78
2022/09/06 13:07:08;;;;;;;18.15;9.57;;;;;;;;;;5091093;28;20497;-73
2022/09/06 13:09:36;;;;;;;15.65;9.73;;;;;;;;;;5094411;28;20044;-74
2022/09/06 13:12:04;;;;;;;15.48;9.25;;;;;;;;;;5095121;28;20511;-76
2022/09/06 13:14:31;;;;;;;19.67;10.90;;;;;;;;;;5090871;28;20062;-73
2022/09/06 13:16:58;;;;;;;14.32;9.13;;;;;;;;;;5092586;28;20153;-76
2022/09/06 13:19:38;;;;;;;18.13;9.18;;;;;;;;;;5091437;28;20040;-82
2022/09/06 13:22:06;;;;;;;19.73;10.10;;;;;;;;;;5091937;28;20130;-76
2022/09/06 13:24:40;;;;;;;18.40;9.45;;;;;;;;;;5090901;27;20177;-82
2022/09/06 13:27:26;;;;;;;17.38;10.30;;;;;;;;;;5136946;27;20239;-78
2022/09/06 13:29:59;;;;;;;15.45;9.35;;;;;;;;;;5120717;27;20104;-72
2022/09/06 13:32:26;;;;;;;18.33;9.77;;;;;;;;;;5134396;27;20039;-76
2022/09/06 13:34:55;;;;;;;16.70;10.00;;;;;;;;;;5116949;27;20150;-75
2022/09/06 13:37:24;;;;;;;15.88;9.13;;;;;;;;;;5144590;27;20145;-74
2022/09/06 13:39:50;;;;;;;18.23;8.32;;;;;;;;;;5145294;27;20050;-75
2022/09/06 13:42:27;;;;;;;13.65;8.10;;;;;;;;;;5125913;27;20054;-78
2022/09/06 13:44:53;;;;;;;12.57;8.00;;;;;;;;;;5143771;27;20075;-80
2022/09/06 13:47:19;;;;;;;15.10;7.70;;;;;;;;;;5145457;27;20046;-76
2022/09/06 13:49:46;;;;;;;13.75;6.90;;;;;;;;;;5148445;27;20042;-71
2022/09/06 13:52:13;;;;;;;14.98;7.05;;;;;;;;;;5107742;27;20047;-76
2022/09/06 13:54:39;;;;;;;12.32;6.43;;;;;;;;;;5140121;27;20055;-77
2022/09/06 13:57:05;;;;;;;14.55;6.80;;;;;;;;;;5136512;27;20129;-82
2022/09/06 13:59:32;;;;;;;13.73;6.32;;;;;;;;;;5136461;27;20057;-81
2022/09/06 14:02:06;;;;;;;11.98;6.25;;;;;;;;;;5144566;27;20070;-75
2022/09/06 14:04:33;;;;;;;13.20;6.22;;;;;;;;;;5139147;27;20087;-77
2022/09/06 14:06:59;;;;;;;12.02;6.47;;;;;;;;;;5128803;27;20043;-77
2022/09/06 14:09:25;;;;;;;10.38;5.63;;;;;;;;;;5145763;27;20054;-72
2022/09/06 14:11:51;;;;;;;11.68;5.50;;;;;;;;;;5144076;27;20134;-76
2022/09/06 14:14:18;;;;;;;9.98;5.25;;;;;;;;;;5140590;27;20039;-80
2022/09/06 14:16:46;;;;;;;9.32;5.10;;;;;;;;;;5127848;27;20088;-80
2022/09/06 14:19:12;;;;;;;12.80;4.82;;;;;;;;;;5148773;27;20118;-76
2022/09/06 14:21:39;;;;;;;11.35;5.50;;;;;;;;;;5150779;27;20058;-76
2022/09/06 14:24:05;;;;;;;11.70;4.90;;;;;;;;;;5152695;27;20042;-78
2022/09/06 14:26:32;;;;;;;10.20;4.85;;;;;;;;;;5147508;27;20043;-80
2022/09/06 14:28:59;;;;;;;9.68;4.88;;;;;;;;;;5149789;27;20481;-78
2022/09/06 14:31:26;;;;;;;11.95;4.80;;;;;;;;;;5144285;27;20097;-78
2022/09/06 14:33:56;;;;;;;10.07;4.60;;;;;;;;;;5141529;27;20117;-74
2022/09/06 14:36:23;;;;;;;12.50;5.18;;;;;;;;;;5131922;27;20130;-73
2022/09/06 14:38:49;;;;;;;11.45;5.18;;;;;;;;;;5132015;27;20137;-87
2022/09/06 14:41:17;;;;;;;12.13;5.35;;;;;;;;;;5150312;27;20053;-78
2022/09/06 14:43:44;;;;;;;12.20;5.22;;;;;;;;;;5151632;27;20066;-77
2022/09/06 14:46:12;;;;;;;19.42;5.18;;;;;;;;;;5150403;27;20057;-82
2022/09/06 14:48:38;;;;;;;11.20;4.95;;;;;;;;;;5132712;27;20074;-78
2022/09/06 14:51:07;;;;;;;12.85;5.63;;;;;;;;;;5138130;27;20077;-77